Banning, CA

2:20 AM PDT on July 04, 2015 (GMT -0700)
Banning Equestrian Estates | | Change Station
CLOSE
Current Station
Personal Weather Station
Location: Banning, CA
Elevation: 2516 ft
Nearby Weather Stations

Elev 2516 ft 33.94 °N, 116.89 °W | Updated 7 minutes ago

Partly Cloudy
Partly Cloudy
64.2 °F
Feels Like 64.2 °F
N
0.0
Wind Variable Wind from NE

Today
High -- | Low -- °F
--% Chance of Precip.
Yesterday
High -- | Low -- °F
Precip. -- in
5:41 AM 8:02 PM
Waning Gibbous, 93% visible
Pressure 29.86 in
Visibility 10.0 miles
Clouds Clear
Dew Point 53 °F
Humidity 68%
Rainfall 0.00 in
Snow Depth Not available.
UV out of 12
Pollen 4.40 out of 12
Air Quality Not available.
Flu Activity Not available.
METAR KRIV 040858Z AUTO 25004KT 10SM CLR 19/11 A2990 RMK AO2 SLP110 T01870110 58006

More Conditions Fewer Conditions

Pressure 29.86 in
Visibility 10.0 miles
Clouds Clear
Dew Point 53 °F
Humidity 68%
Rainfall 0.00 in
Snow Depth Not available.
UV out of 12
Pollen 4.40 out of 12
Air Quality Not available.
Flu Activity Not available.
METAR KRIV 040858Z AUTO 25004KT 10SM CLR 19/11 A2990 RMK AO2 SLP110 T01870110 58006

More Conditions Fewer Conditions

10-Day Weather Forecast

×

Almanac

Astronomy

Jul. 04, 2015 Rise Set
Actual Time
Civil Twilight
Nautical Twilight
Astronomical Twilight
Moon
Length of Visible Light
Length of Day
Tomorrow will be .
, % of the Moon is Illuminated

Today's Extremes

State Highs State Lows

Community

WunderPhotos

Upload Photos

1,834,931 photos uploaded!

WunderBlogs® & News

Nearby

Air Quality

  Air Quality AQ Index Pollutant
Not available.

Snow Depth

Station Depth Elevation

Earthquake Activity

City Distance Mag. Time & Date
Minimum magnitude displayed is 2.5.

Coastal Water Temperatures

Place Temperature

Stations

Nearby Weather Stations

Station Location Temp. Windchill Dew Point Humidity Wind Precip. Elev Updated Type